Anvik Airport

About
Name: Anvik Airport
Identifier:  ANV/PANV
Owner:  State of Alaska DOT&PF - Northern Region
Public/Private:  Public
Local Time:  22. Aug 20:28 AKDT
Description: Anvik Airport is a public airport located one mile southeast of the central business district of Anvik, a city in the Yukon-Koyukuk Census Area, Alaska of the U.S. state of Alaska. It is owned by the state.
Source: Wikipedia
Location
Runways
Identifier Length (m/ft) Surface
17/35 4,000/4,000 Gravel
Flights per Day
0 flights
Distance: 41km (25mi)
Punctuality
50% (0 flights per day delayed)
Delay Average: 237 minutes
Current Weather
 16 C (Humidity: 44%)
  9kt (16km/h / 10mph) from 150°
  16km (10 mi.)
 
 METAR PANV 312356Z AUTO 15009KT 10SM CLR 16/04 A2969 RMK AO2 SLP104 60000 T01610044 10161 20122 58004 TSNO

Current Flights

Departures
Number Departure To Airline
Arrivals
Number Arrival From Airline

Current Delays

Departures
N/A
Arrivals
N/A

Destinations

Top Destinations
Airport Flights
per week
Seats
per week
  Anchorage (ANC) 0 - 0 0

Airlines & Planes

Top Airlines
Airline Flights
per Day
Seats
per Day
Alaska Central Express 0 -
Top Plane Types
Model Flights Seats
Beech 1900D 0.1/day - 0